createdAt,value
2018-06-04T00:00:01.541Z,3.67
2018-06-04T00:02:29.792Z,3.50
2018-06-04T00:04:58.079Z,3.93
2018-06-04T00:07:26.320Z,3.80
2018-06-04T00:09:55.664Z,3.60
2018-06-04T00:12:23.909Z,4.20
2018-06-04T00:14:52.923Z,4.23
2018-06-04T00:17:21.191Z,3.77
2018-06-04T00:19:49.442Z,4.20
2018-06-04T00:22:18.475Z,3.90
2018-06-04T00:24:46.848Z,4.10
2018-06-04T00:27:15.111Z,4.13
2018-06-04T00:29:44.123Z,3.77
2018-06-04T00:32:12.505Z,4.10
2018-06-04T00:34:40.739Z,3.60
2018-06-04T00:37:09.758Z,3.90
2018-06-04T00:39:38.031Z,4.03
2018-06-04T00:42:06.284Z,4.20
2018-06-04T00:44:35.302Z,4.37
2018-06-04T00:47:03.601Z,4.30
2018-06-04T00:49:31.851Z,4.03
2018-06-04T00:52:00.099Z,3.93
2018-06-04T00:54:29.147Z,4.10
2018-06-04T00:56:57.428Z,4.20
2018-06-04T00:59:25.728Z,4.07
2018-06-04T01:01:54.183Z,3.97
2018-06-04T01:04:22.430Z,3.67
2018-06-04T01:06:50.679Z,3.87
2018-06-04T01:09:19.147Z,4.10
2018-06-04T01:11:47.365Z,3.90
2018-06-04T01:14:15.678Z,4.23
2018-06-04T01:16:43.929Z,3.80
2018-06-04T01:19:12.172Z,4.03
2018-06-04T01:21:40.424Z,4.03
2018-06-04T01:24:08.725Z,3.57
2018-06-04T01:26:36.977Z,3.70
2018-06-04T01:29:05.996Z,3.87
2018-06-04T01:31:34.327Z,3.67
2018-06-04T01:34:02.626Z,4.33
2018-06-04T01:36:31.667Z,4.00
2018-06-04T01:38:59.959Z,4.40
2018-06-04T01:41:28.207Z,4.00
2018-06-04T01:43:56.499Z,4.00
2018-06-04T01:46:24.822Z,4.20
2018-06-04T01:48:53.849Z,4.03
2018-06-04T01:51:22.315Z,3.93
2018-06-04T01:53:50.581Z,4.10
2018-06-04T01:56:18.829Z,4.37
2018-06-04T01:58:48.035Z,4.37
2018-06-04T02:01:17.065Z,4.17
2018-06-04T02:03:45.312Z,4.00
2018-06-04T02:06:13.608Z,4.17
2018-06-04T02:08:41.913Z,4.00
2018-06-04T02:11:10.187Z,4.30
2018-06-04T02:13:38.492Z,3.70
2018-06-04T02:16:06.765Z,3.60
2018-06-04T02:18:35.035Z,4.10
2018-06-04T02:21:03.284Z,4.20
2018-06-04T02:23:31.594Z,3.60
2018-06-04T02:26:00.619Z,3.90
2018-06-04T02:28:28.885Z,3.73
2018-06-04T02:30:57.166Z,3.67
2018-06-04T02:33:25.431Z,4.07
2018-06-04T02:35:54.564Z,4.20
2018-06-04T02:38:22.822Z,4.60
2018-06-04T02:40:51.071Z,4.50
2018-06-04T02:43:20.268Z,4.43
2018-06-04T02:45:49.296Z,4.03
2018-06-04T02:48:17.580Z,3.90
2018-06-04T02:50:45.837Z,4.60
2018-06-04T02:53:14.088Z,4.30
2018-06-04T02:55:43.209Z,4.17
2018-06-04T02:58:11.482Z,4.77
2018-06-04T03:00:39.752Z,4.20
2018-06-04T03:03:08.012Z,4.10
2018-06-04T03:05:36.267Z,3.83
2018-06-04T03:08:05.298Z,3.10
2018-06-04T03:10:33.551Z,2.80
2018-06-04T03:13:02.628Z,3.30
2018-06-04T03:15:32.371Z,3.83
2018-06-04T03:18:00.644Z,3.87
2018-06-04T03:20:28.913Z,3.90
2018-06-04T03:22:57.179Z,4.17
2018-06-04T03:25:26.210Z,3.90
2018-06-04T03:27:54.483Z,3.50
2018-06-04T03:30:22.731Z,3.40
2018-06-04T03:32:50.999Z,2.83
2018-06-04T03:35:20.021Z,2.57
2018-06-04T03:37:48.297Z,2.60
2018-06-04T03:40:16.564Z,2.40
2018-06-04T03:42:44.812Z,2.40
2018-06-04T03:45:13.847Z,2.50
2018-06-04T03:47:42.367Z,2.50
2018-06-04T03:50:10.706Z,3.00
2018-06-04T03:52:38.972Z,3.20
2018-06-04T03:55:07.238Z,2.33
2018-06-04T03:57:35.488Z,2.57
2018-06-04T04:00:04.499Z,3.03
2018-06-04T04:02:32.807Z,3.27
2018-06-04T04:05:01.860Z,4.00
2018-06-04T04:07:31.205Z,4.20
2018-06-04T04:09:59.481Z,4.30
2018-06-04T04:12:27.724Z,3.80
2018-06-04T04:14:55.995Z,4.03
2018-06-04T04:17:24.241Z,4.20
2018-06-04T04:19:53.285Z,4.30
2018-06-04T04:22:21.543Z,4.33
2018-06-04T04:24:49.789Z,3.83
2018-06-04T04:27:18.828Z,4.20
2018-06-04T04:29:47.076Z,5.07
2018-06-04T04:32:15.339Z,5.20
2018-06-04T04:34:43.602Z,4.53
2018-06-04T04:37:12.984Z,4.93
2018-06-04T04:39:41.227Z,4.20
2018-06-04T04:42:09.480Z,4.77
2018-06-04T04:44:37.744Z,4.83
2018-06-04T04:47:06.016Z,5.40
2018-06-04T04:49:35.028Z,5.70
2018-06-04T04:52:03.291Z,6.20
2018-06-04T04:54:31.568Z,5.93
2018-06-04T04:56:59.828Z,5.90
2018-06-04T04:59:28.865Z,5.30
2018-06-04T05:01:57.111Z,6.07
2018-06-04T05:04:25.423Z,6.10
2018-06-04T05:06:53.679Z,6.50
2018-06-04T05:09:21.941Z,6.63
2018-06-04T05:11:50.206Z,7.13
2018-06-04T05:14:18.459Z,8.53
2018-06-04T05:16:47.583Z,9.80
2018-06-04T05:19:15.852Z,11.40
2018-06-04T05:21:44.284Z,10.33
2018-06-04T05:24:12.553Z,13.20
2018-06-04T05:26:40.840Z,14.03
2018-06-04T05:29:09.112Z,13.60
2018-06-04T05:31:37.421Z,15.53
2018-06-04T05:34:06.456Z,16.33
2018-06-04T05:36:34.723Z,17.63
2018-06-04T05:39:04.063Z,17.97
2018-06-04T05:41:32.344Z,17.90
2018-06-04T05:44:00.632Z,18.10
2018-06-04T05:46:29.148Z,18.73
2018-06-04T05:48:57.407Z,16.40
2018-06-04T05:51:25.667Z,16.80
2018-06-04T05:53:54.713Z,17.17
2018-06-04T05:56:22.965Z,17.40
2018-06-04T05:58:51.402Z,17.50
2018-06-04T06:01:20.433Z,16.33
2018-06-04T06:03:48.694Z,15.60
2018-06-04T06:06:16.966Z,16.10
2018-06-04T06:08:45.224Z,15.40
2018-06-04T06:11:14.276Z,15.20
2018-06-04T06:13:42.805Z,14.70
2018-06-04T06:16:11.034Z,14.27
2018-06-04T06:18:39.302Z,13.23
2018-06-04T06:21:07.568Z,13.00
2018-06-04T06:23:36.023Z,12.40
2018-06-04T06:26:04.280Z,11.43
2018-06-04T06:28:33.304Z,8.67
2018-06-04T06:31:01.571Z,9.90
2018-06-04T06:33:29.827Z,7.53
2018-06-04T06:35:58.906Z,6.93
2018-06-04T06:38:27.188Z,7.40
2018-06-04T06:40:56.209Z,5.90
2018-06-04T06:43:24.460Z,6.37
2018-06-04T06:45:53.495Z,7.00
2018-06-04T06:48:21.753Z,6.07
2018-06-04T06:50:50.008Z,6.13
2018-06-04T06:53:19.091Z,6.07
2018-06-04T06:55:48.114Z,6.13
2018-06-04T06:58:16.370Z,6.13
2018-06-04T07:00:45.402Z,6.07
2018-06-04T07:03:13.647Z,5.60
2018-06-04T07:05:41.903Z,5.47
2018-06-04T07:08:11.039Z,5.40
2018-06-04T07:10:39.284Z,5.70
2018-06-04T07:13:08.300Z,6.07
2018-06-04T07:15:36.564Z,5.73
2018-06-04T07:18:04.816Z,5.27
2018-06-04T07:20:34.152Z,5.27
2018-06-04T07:23:03.164Z,5.63
2018-06-04T07:25:31.421Z,5.93
2018-06-04T07:27:59.692Z,5.70
2018-06-04T07:30:27.951Z,5.97
2018-06-04T07:32:56.202Z,5.83
2018-06-04T07:35:25.220Z,6.20
2018-06-04T07:37:53.703Z,6.20
2018-06-04T07:40:21.976Z,5.40
2018-06-04T07:42:50.227Z,5.60
2018-06-04T07:45:19.260Z,5.93
2018-06-04T07:47:47.517Z,6.23
2018-06-04T07:50:15.755Z,5.50
2018-06-04T07:52:44.014Z,5.73
2018-06-04T07:55:12.281Z,5.57
2018-06-04T07:57:40.543Z,5.60
2018-06-04T08:00:08.825Z,5.90
2018-06-04T08:02:37.069Z,6.10
2018-06-04T08:05:05.375Z,5.03
2018-06-04T08:07:33.604Z,5.50
2018-06-04T08:10:02.842Z,5.47
2018-06-04T08:12:31.020Z,5.87
2018-06-04T08:14:59.271Z,6.00
2018-06-04T08:17:27.536Z,5.40
2018-06-04T08:19:55.791Z,5.97
2018-06-04T08:22:24.965Z,5.70
2018-06-04T08:24:53.224Z,6.00
2018-06-04T08:27:21.477Z,6.00
2018-06-04T08:29:49.743Z,6.13
2018-06-04T08:32:18.057Z,5.40
2018-06-04T08:34:46.277Z,5.33
2018-06-04T08:37:14.785Z,5.47
2018-06-04T08:39:43.028Z,5.80
2018-06-04T08:42:12.057Z,5.13
2018-06-04T08:44:40.320Z,5.53
2018-06-04T08:47:08.587Z,5.83
2018-06-04T08:49:36.840Z,5.90
2018-06-04T08:52:05.871Z,5.57
2018-06-04T08:54:34.120Z,5.57
2018-06-04T08:57:02.379Z,6.53
2018-06-04T08:59:31.409Z,5.50
2018-06-04T09:01:59.652Z,5.23
2018-06-04T09:04:28.682Z,5.40
2018-06-04T09:06:56.935Z,5.50
2018-06-04T09:09:25.190Z,5.70
2018-06-04T09:11:54.221Z,5.57
2018-06-04T09:14:22.472Z,5.03
2018-06-04T09:16:50.727Z,5.17
2018-06-04T09:19:19.757Z,6.07
2018-06-04T09:21:48.052Z,5.33
2018-06-04T09:24:16.288Z,5.23
2018-06-04T09:26:44.547Z,5.27
2018-06-04T09:29:13.681Z,5.27
2018-06-04T09:31:41.923Z,5.87
2018-06-04T09:34:10.931Z,5.17
2018-06-04T09:36:39.201Z,5.60
2018-06-04T09:39:08.221Z,5.13
2018-06-04T09:41:36.799Z,4.83
2018-06-04T09:44:05.043Z,4.67
2018-06-04T09:46:34.080Z,4.70
2018-06-04T09:49:02.348Z,5.43
2018-06-04T09:51:30.584Z,5.73
2018-06-04T09:53:59.622Z,4.80
2018-06-04T09:56:27.884Z,4.90
2018-06-04T09:58:56.136Z,5.47
2018-06-04T10:01:24.392Z,5.57
2018-06-04T10:03:53.431Z,4.93
2018-06-04T10:06:21.664Z,5.00
2018-06-04T10:08:50.712Z,4.90
2018-06-04T10:11:18.973Z,4.60
2018-06-04T10:13:47.288Z,4.63
2018-06-04T10:16:15.507Z,5.40
2018-06-04T10:18:43.761Z,5.40
2018-06-04T10:21:12.803Z,4.97
2018-06-04T10:23:41.108Z,5.00
2018-06-04T10:26:09.443Z,5.20
2018-06-04T10:28:38.472Z,4.90
2018-06-04T10:31:06.727Z,5.10
2018-06-04T10:33:35.281Z,4.60
2018-06-04T10:36:03.529Z,5.13
2018-06-04T10:38:32.543Z,4.40
2018-06-04T10:41:01.125Z,4.90
2018-06-04T10:43:29.380Z,5.20
2018-06-04T10:45:58.401Z,4.57
2018-06-04T10:48:26.652Z,4.80
2018-06-04T10:50:55.675Z,4.83
2018-06-04T10:53:23.919Z,4.80
2018-06-04T10:55:52.156Z,4.87
2018-06-04T10:58:20.419Z,5.50
2018-06-04T11:00:48.670Z,4.50
2018-06-04T11:03:16.923Z,4.87
2018-06-04T11:05:45.214Z,4.00
2018-06-04T11:08:14.205Z,4.63
2018-06-04T11:10:42.573Z,3.80
2018-06-04T11:13:10.820Z,4.00
2018-06-04T11:15:39.835Z,4.60
2018-06-04T11:18:08.244Z,4.00
2018-06-04T11:20:36.488Z,3.90
2018-06-04T11:23:04.743Z,4.40
2018-06-04T11:25:33.776Z,3.63
2018-06-04T11:28:02.036Z,4.10
2018-06-04T11:30:30.348Z,3.50
2018-06-04T11:32:59.328Z,3.53
2018-06-04T11:35:27.572Z,3.37
2018-06-04T11:37:55.827Z,3.80
2018-06-04T11:40:25.160Z,3.47
2018-06-04T11:42:53.409Z,3.40
2018-06-04T11:45:22.435Z,3.37
2018-06-04T11:47:50.692Z,3.90
2018-06-04T11:50:18.952Z,3.20
2018-06-04T11:52:48.172Z,3.03
2018-06-04T11:55:16.432Z,2.73
2018-06-04T11:57:45.444Z,3.00
2018-06-04T12:00:13.699Z,2.90
2018-06-04T12:02:41.967Z,3.43
2018-06-04T12:05:11.061Z,2.97
2018-06-04T12:07:40.288Z,2.47
2018-06-04T12:10:08.543Z,2.73
2018-06-04T12:12:37.548Z,2.40
2018-06-04T12:15:05.819Z,2.13
2018-06-04T12:17:34.080Z,2.30
2018-06-04T12:20:02.320Z,2.33
2018-06-04T12:22:30.573Z,2.00
2018-06-04T12:24:58.822Z,2.17
2018-06-04T12:27:27.064Z,2.07
2018-06-04T12:29:55.331Z,2.27
2018-06-04T12:32:23.595Z,1.50
2018-06-04T12:34:51.831Z,1.70
2018-06-04T12:37:20.107Z,2.10
2018-06-04T12:39:48.361Z,2.00
2018-06-04T12:42:16.611Z,2.00
2018-06-04T12:44:45.023Z,2.37
2018-06-04T12:47:13.265Z,2.27
2018-06-04T12:49:42.276Z,2.90
2018-06-04T12:52:10.691Z,3.20
2018-06-04T12:54:38.946Z,3.10
2018-06-04T12:57:07.203Z,2.90
2018-06-04T12:59:36.259Z,2.90
2018-06-04T13:02:04.534Z,2.90
2018-06-04T13:04:33.145Z,2.90
2018-06-04T13:07:01.341Z,2.60
2018-06-04T13:09:30.383Z,2.53
2018-06-04T13:11:58.650Z,2.77
2018-06-04T13:14:26.905Z,2.63
2018-06-04T13:16:55.655Z,2.60
2018-06-04T13:19:23.880Z,2.60
2018-06-04T13:21:52.138Z,2.97
2018-06-04T13:24:20.383Z,3.00
2018-06-04T13:26:48.640Z,2.63
2018-06-04T13:29:17.662Z,2.93
2018-06-04T13:31:45.922Z,2.77
2018-06-04T13:34:14.934Z,2.90
2018-06-04T13:36:44.180Z,3.00
2018-06-04T13:39:12.425Z,2.70
2018-06-04T13:41:40.678Z,2.97
2018-06-04T13:44:08.938Z,2.80
2018-06-04T13:46:37.183Z,3.10
2018-06-04T13:49:05.445Z,2.63
2018-06-04T13:51:33.710Z,2.60
2018-06-04T13:54:01.943Z,3.07
2018-06-04T13:56:30.216Z,2.80
2018-06-04T13:58:58.472Z,2.80
2018-06-04T14:01:27.499Z,2.43
2018-06-04T14:03:55.782Z,2.73
2018-06-04T14:06:24.169Z,2.63
2018-06-04T14:08:52.441Z,2.90
2018-06-04T14:11:20.763Z,2.83
2018-06-04T14:13:48.954Z,2.83
2018-06-04T14:16:18.174Z,3.17
2018-06-04T14:18:46.422Z,2.73
2018-06-04T14:21:16.035Z,2.93
2018-06-04T14:23:45.242Z,3.30
2018-06-04T14:26:14.250Z,2.80
2018-06-04T14:28:42.523Z,3.07
2018-06-04T14:31:10.797Z,2.83
2018-06-04T14:33:39.087Z,2.73
2018-06-04T14:36:08.084Z,3.07
2018-06-04T14:38:36.335Z,2.93
2018-06-04T14:41:04.590Z,3.17
2018-06-04T14:43:33.610Z,2.77
2018-06-04T14:46:01.880Z,2.90
2018-06-04T14:48:30.148Z,3.03
2018-06-04T14:50:58.399Z,3.67
2018-06-04T14:53:27.430Z,4.27
2018-06-04T14:55:55.700Z,4.30
2018-06-04T14:58:24.158Z,3.83
2018-06-04T15:00:53.363Z,4.30
2018-06-04T15:03:22.357Z,4.10
2018-06-04T15:05:50.664Z,4.47
2018-06-04T15:08:19.153Z,3.77
2018-06-04T15:10:47.406Z,4.10
2018-06-04T15:13:15.654Z,3.40
2018-06-04T15:15:44.687Z,3.43
2018-06-04T15:18:18.015Z,3.30
2018-06-04T15:20:47.032Z,3.10
2018-06-04T15:23:15.321Z,3.07
2018-06-04T15:25:43.818Z,3.67
2018-06-04T15:28:12.090Z,3.30
2018-06-04T15:30:40.336Z,3.90
2018-06-04T15:33:08.850Z,3.73
2018-06-04T15:35:37.119Z,4.20
2018-06-04T15:38:05.385Z,3.63
2018-06-04T15:40:33.646Z,3.60
2018-06-04T15:43:01.940Z,3.70
2018-06-04T15:45:30.205Z,4.03
2018-06-04T15:47:58.476Z,3.87
2018-06-04T15:50:26.793Z,4.10
2018-06-04T15:52:55.027Z,3.83
2018-06-04T15:55:23.292Z,4.20
2018-06-04T15:57:51.649Z,4.37
2018-06-04T16:00:20.677Z,4.40
2018-06-04T16:02:48.951Z,3.90
2018-06-04T16:05:17.234Z,4.70
2018-06-04T16:07:45.562Z,4.70
2018-06-04T16:10:13.836Z,4.40
2018-06-04T16:12:42.096Z,4.40
2018-06-04T16:15:10.352Z,4.20
2018-06-04T16:17:38.627Z,3.87
2018-06-04T16:20:06.857Z,3.87
2018-06-04T16:22:35.886Z,3.30
2018-06-04T16:25:04.204Z,4.10
2018-06-04T16:27:32.448Z,3.83
2018-06-04T16:30:00.711Z,3.87
2018-06-04T16:32:28.998Z,3.63
2018-06-04T16:34:58.084Z,3.87
2018-06-04T16:37:26.387Z,3.67
2018-06-04T16:39:54.599Z,3.70
2018-06-04T16:42:22.863Z,3.80
2018-06-04T16:44:52.095Z,4.07
2018-06-04T16:47:20.295Z,3.70
2018-06-04T16:49:48.557Z,3.50
2018-06-04T16:52:16.922Z,3.60
2018-06-04T16:54:45.179Z,3.67
2018-06-04T16:57:14.201Z,3.43
2018-06-04T16:59:42.471Z,3.57
2018-06-04T17:02:10.728Z,4.00
2018-06-04T17:04:38.989Z,2.90
2018-06-04T17:07:08.033Z,3.67
2018-06-04T17:09:36.272Z,3.30
2018-06-04T17:12:04.532Z,3.63
2018-06-04T17:14:33.668Z,3.43
2018-06-04T17:17:01.927Z,3.50
2018-06-04T17:19:30.180Z,3.80
2018-06-04T17:21:59.237Z,4.10
2018-06-04T17:24:27.491Z,3.33
2018-06-04T17:26:55.743Z,3.60
2018-06-04T17:29:24.011Z,4.00
2018-06-04T17:31:52.439Z,3.63
2018-06-04T17:34:20.680Z,3.73
2018-06-04T17:36:48.967Z,3.63
2018-06-04T17:39:17.219Z,3.90
2018-06-04T17:41:45.479Z,4.17
2018-06-04T17:44:14.499Z,4.13
2018-06-04T17:46:42.759Z,4.27
2018-06-04T17:49:11.017Z,3.80
2018-06-04T17:51:40.047Z,4.20
2018-06-04T17:54:08.323Z,4.50
2018-06-04T17:56:37.339Z,4.07
2018-06-04T17:59:05.595Z,4.10
2018-06-04T18:01:33.843Z,3.77
2018-06-04T18:04:02.107Z,4.33
2018-06-04T18:06:30.550Z,4.40
2018-06-04T18:08:58.799Z,4.27
2018-06-04T18:11:27.064Z,3.80
2018-06-04T18:13:56.094Z,4.30
2018-06-04T18:16:24.370Z,4.20
2018-06-04T18:18:52.609Z,4.20
2018-06-04T18:21:20.909Z,4.30
2018-06-04T18:23:49.159Z,4.63
2018-06-04T18:26:17.540Z,4.47
2018-06-04T18:28:45.780Z,4.50
2018-06-04T18:31:14.034Z,4.27
2018-06-04T18:33:43.072Z,4.50
2018-06-04T18:36:11.337Z,3.90
2018-06-04T18:38:39.616Z,4.30
2018-06-04T18:41:07.878Z,4.23
2018-06-04T18:43:37.012Z,4.07
2018-06-04T18:46:05.259Z,3.97
2018-06-04T18:48:33.540Z,4.33
2018-06-04T18:51:01.839Z,3.90
2018-06-04T18:53:30.094Z,4.00
2018-06-04T18:55:58.347Z,4.47
2018-06-04T18:58:26.624Z,4.23
2018-06-04T19:00:54.891Z,4.40
2018-06-04T19:03:23.931Z,4.00
2018-06-04T19:05:52.183Z,4.70
2018-06-04T19:08:20.476Z,4.40
2018-06-04T19:10:48.730Z,4.10
2018-06-04T19:13:17.100Z,4.50
2018-06-04T19:15:45.351Z,4.63
2018-06-04T19:18:14.364Z,4.10
2018-06-04T19:20:42.836Z,4.10
2018-06-04T19:23:11.105Z,4.40
2018-06-04T19:25:40.134Z,4.47
2018-06-04T19:28:08.379Z,4.50
2018-06-04T19:30:36.637Z,4.27
2018-06-04T19:33:05.732Z,4.27
2018-06-04T19:35:33.924Z,4.57
2018-06-04T19:38:02.253Z,4.50
2018-06-04T19:40:30.513Z,4.27
2018-06-04T19:42:58.765Z,4.93
2018-06-04T19:45:27.064Z,4.43
2018-06-04T19:47:55.346Z,4.10
2018-06-04T19:50:23.625Z,3.90
2018-06-04T19:52:51.888Z,4.17
2018-06-04T19:55:20.170Z,4.53
2018-06-04T19:57:48.403Z,4.27
2018-06-04T20:00:16.646Z,4.70
2018-06-04T20:02:44.910Z,4.40
2018-06-04T20:05:13.175Z,4.90
2018-06-04T20:07:41.438Z,4.60
2018-06-04T20:10:09.711Z,4.13
2018-06-04T20:12:37.971Z,4.30
2018-06-04T20:15:07.000Z,4.43
2018-06-04T20:17:35.256Z,5.13
2018-06-04T20:20:03.571Z,4.87
2018-06-04T20:22:32.596Z,4.60
2018-06-04T20:25:00.952Z,4.40
2018-06-04T20:27:29.975Z,4.40
2018-06-04T20:29:58.230Z,4.50
2018-06-04T20:32:26.746Z,5.00
2018-06-04T20:34:55.014Z,4.40
2018-06-04T20:37:23.271Z,4.80
2018-06-04T20:39:51.541Z,4.73
2018-06-04T20:42:19.795Z,4.80
2018-06-04T20:44:48.838Z,4.63
2018-06-04T20:47:17.361Z,4.47
2018-06-04T20:49:46.623Z,4.60
2018-06-04T20:52:14.879Z,4.60
2018-06-04T20:54:43.143Z,5.13
2018-06-04T20:57:11.421Z,4.50
2018-06-04T20:59:39.677Z,4.77
2018-06-04T21:02:08.713Z,5.33
2018-06-04T21:04:36.989Z,4.50
2018-06-04T21:07:05.235Z,4.50
2018-06-04T21:09:33.632Z,4.30
2018-06-04T21:12:01.879Z,4.57
2018-06-04T21:14:30.139Z,4.33
2018-06-04T21:16:59.465Z,4.60
2018-06-04T21:19:27.705Z,5.60
2018-06-04T21:21:56.733Z,4.30
2018-06-04T21:24:25.099Z,4.67
2018-06-04T21:26:53.356Z,5.20
2018-06-04T21:29:22.394Z,4.57
2018-06-04T21:31:50.669Z,5.47
2018-06-04T21:34:18.923Z,5.00
2018-06-04T21:36:47.196Z,4.97
2018-06-04T21:39:15.459Z,4.97
2018-06-04T21:41:44.591Z,4.60
2018-06-04T21:44:12.846Z,5.17
2018-06-04T21:46:41.114Z,4.83
2018-06-04T21:49:09.535Z,5.13
2018-06-04T21:51:37.747Z,4.87
2018-06-04T21:54:06.762Z,5.00
2018-06-04T21:56:35.027Z,5.50
2018-06-04T21:59:03.537Z,4.73
2018-06-04T22:01:31.806Z,5.10
2018-06-04T22:04:00.064Z,5.60
2018-06-04T22:06:28.584Z,5.20
2018-06-04T22:08:56.853Z,5.13
2018-06-04T22:11:25.124Z,4.90
2018-06-04T22:13:53.528Z,5.70
2018-06-04T22:16:21.783Z,5.13
2018-06-04T22:18:50.077Z,5.13
2018-06-04T22:21:18.360Z,5.03
2018-06-04T22:23:46.609Z,5.20
2018-06-04T22:26:15.182Z,4.83
2018-06-04T22:28:43.431Z,5.50
2018-06-04T22:31:12.099Z,5.37
2018-06-04T22:33:40.335Z,4.93
2018-06-04T22:36:08.613Z,5.43
2018-06-04T22:38:36.858Z,5.20
2018-06-04T22:41:05.887Z,4.90
2018-06-04T22:43:34.153Z,4.97
2018-06-04T22:46:02.461Z,5.40
2018-06-04T22:48:30.751Z,5.13
2018-06-04T22:50:59.309Z,5.50
2018-06-04T22:53:27.617Z,5.47
2018-06-04T22:55:55.950Z,5.70
2018-06-04T22:58:24.289Z,5.10
2018-06-04T23:00:52.557Z,5.50
2018-06-04T23:03:20.829Z,5.30
2018-06-04T23:05:49.078Z,5.60
2018-06-04T23:08:18.103Z,5.53
2018-06-04T23:10:46.364Z,5.37
2018-06-04T23:13:14.618Z,5.63
2018-06-04T23:15:43.656Z,5.60
2018-06-04T23:18:11.886Z,5.63
2018-06-04T23:20:40.938Z,5.07
2018-06-04T23:23:09.178Z,5.87
2018-06-04T23:25:37.426Z,6.00
2018-06-04T23:28:06.456Z,5.90
2018-06-04T23:30:34.726Z,5.63
2018-06-04T23:33:02.989Z,5.30
2018-06-04T23:35:32.006Z,5.70
2018-06-04T23:38:00.286Z,5.63
2018-06-04T23:40:28.570Z,6.23
2018-06-04T23:42:56.846Z,5.80
2018-06-04T23:45:25.110Z,5.60
2018-06-04T23:47:53.434Z,6.00
2018-06-04T23:50:22.450Z,5.87
2018-06-04T23:52:50.702Z,5.80
2018-06-04T23:55:20.006Z,5.80
2018-06-04T23:57:48.241Z,5.43
